Terminal Aerodrome Forecast
Issued by NWS

Current Version | Previous Version | Text Only | Print | Product List | Glossary On
Versions: 1 2 3 4 5 6 7 8 9 10 11 12 13 14 15
000
FTUS45 KVEF 051736
TAFBIH
TAF
KBIH 051736Z 0518/0618 32009KT P6SM SKC
     FM052100 18009KT P6SM SCT120
     FM052300 18009KT P6SM VCTS FEW060 SCT080 BKN110CB
      TEMPO 0523/0603 VRB10G20KT -TSRA SCT080 BKN100CB
     FM060400 24006KT P6SM FEW100 SCT150
     FM060700 34006KT P6SM SKC=

USA.gov is the U.S. government's official web portal to all federal, state and local government web resources and services.